SCVM 230400Z 00000KT 8000 SCT025 12/11 Q1016